Terminal Aerodrome Forecast
Issued by NWS

Home | Current Version | Previous Version | Text Only | Print | Product List | Glossary On
Versions: 1 2 3 4 5 6 7 8 9 10 11 12 13 14
000
FTUS45 KGGW 162300
TAFSDY
TAF
KSDY 162323Z 1700/1724 09010KT P6SM OVC025
     FM170300 10008KT P6SM SCT025 OVC035
     FM170900 08009KT P6SM OVC015
     FM171600 14013KT P6SM OVC050
      AMD LTD TO CLD VIS AND WIND=

USA.gov is the U.S. government's official web portal to all federal, state and local government web resources and services.